Time;durP1;ratioP1;P1;durP2;ratioP2;P2;SDS_P1;SDS_P2;PMS_P1;PMS_P2;Temp;Humidity;BMP_temperature;BMP_pressure;BME280_temperature;BME280_humidity;BME280_pressure;Samples;Min_cycle;Max_cycle;Signal;HPM_P1;HPM_P2
2022/01/02 00:01:48;;;;;;;1999.90;999.90;;;;;;;11.96;73.51;101628.06;15737663;28;20528;-64
2022/01/02 00:09:31;;;;;;;1999.90;999.90;;;;;;;11.82;73.79;101605.78;15777609;28;20036;-64
2022/01/02 00:17:06;;;;;;;1999.90;999.90;;;;;;;11.76;74.00;101595.00;15765914;28;20507;-66
2022/01/02 00:24:42;;;;;;;1999.90;999.90;;;;;;;11.76;73.78;101592.19;15755622;28;20249;-65
2022/01/02 00:32:15;;;;;;;1999.90;999.90;;;;;;;11.60;74.28;101582.56;15778495;28;20052;-65
2022/01/02 00:39:49;;;;;;;1999.90;999.90;;;;;;;11.65;74.13;101565.66;15745474;28;20579;-65
2022/01/02 00:47:29;;;;;;;1999.90;999.90;;;;;;;11.36;75.09;101529.78;15764438;28;20467;-65
2022/01/02 00:55:05;;;;;;;1999.90;999.90;;;;;;;11.26;75.42;101508.53;15777188;28;20040;-65
2022/01/02 01:02:44;;;;;;;1999.90;999.90;;;;;;;11.19;75.60;101505.38;15749473;28;20127;-65
2022/01/02 01:10:18;;;;;;;1999.90;999.90;;;;;;;11.32;75.30;101504.47;15738621;28;20044;-65
2022/01/02 01:17:54;;;;;;;1999.90;999.90;;;;;;;11.14;75.67;101495.13;15766215;28;20485;-64
2022/01/02 01:25:28;;;;;;;1999.90;999.90;;;;;;;11.09;76.04;101483.28;15734898;28;20040;-66
2022/01/02 01:33:02;;;;;;;1999.90;999.90;;;;;;;11.10;76.03;101465.38;15763637;28;20036;-65
2022/01/02 01:40:41;;;;;;;1999.90;999.90;;;;;;;10.77;77.17;101442.47;15754598;28;20571;-65
2022/01/02 01:48:14;;;;;;;1999.90;999.90;;;;;;;10.81;77.47;101423.94;15755404;28;20032;-65
2022/01/02 01:55:48;;;;;;;1999.90;999.90;;;;;;;10.81;77.46;101404.41;15746876;28;20063;-63
2022/01/02 02:03:21;;;;;;;1999.90;999.90;;;;;;;10.95;76.60;101394.00;15761494;28;20524;-64
2022/01/02 02:10:58;;;;;;;1999.90;999.90;;;;;;;10.69;77.80;101363.09;15742681;28;20048;-63
2022/01/02 02:18:34;;;;;;;1999.90;999.90;;;;;;;10.80;76.71;101363.66;15731026;28;20078;-62
2022/01/02 02:26:10;;;;;;;1999.90;999.90;;;;;;;10.63;77.80;101356.03;15749735;28;20048;-62
2022/01/02 02:33:42;;;;;;;1999.90;999.90;;;;;;;10.61;77.10;101380.59;15723320;28;20048;-65
2022/01/02 02:41:16;;;;;;;1999.90;999.90;;;;;;;10.67;76.75;101352.25;15744440;28;20051;-63
2022/01/02 02:49:02;;;;;;;1999.90;999.90;;;;;;;10.45;77.30;101318.78;15731769;28;20044;-65
2022/01/02 02:56:44;;;;;;;1999.90;999.90;;;;;;;10.51;77.30;101297.16;15769455;28;20552;-64
2022/01/02 03:04:18;;;;;;;1999.90;999.90;;;;;;;10.45;77.18;101287.28;15769202;28;20074;-64
2022/01/02 03:11:52;;;;;;;1999.90;999.90;;;;;;;10.29;77.38;101270.09;15741399;28;20048;-63
2022/01/02 03:19:25;;;;;;;1999.90;999.90;;;;;;;10.71;76.21;101268.69;15794003;28;20525;-65
2022/01/02 03:26:59;;;;;;;1999.90;999.90;;;;;;;10.50;77.15;101248.06;15745780;28;20045;-66
2022/01/02 03:34:31;;;;;;;1999.90;999.90;;;;;;;10.60;76.75;101231.88;15732854;28;20324;-64
2022/01/02 03:42:06;;;;;;;1999.90;999.90;;;;;;;10.85;76.28;101240.69;15763649;28;20131;-65
2022/01/02 03:49:39;;;;;;;1999.90;999.90;;;;;;;10.87;75.64;101238.41;15726765;28;20048;-65
2022/01/02 03:57:13;;;;;;;1999.90;999.90;;;;;;;10.90;76.04;101210.66;15760156;28;20032;-66
2022/01/02 04:04:47;;;;;;;1999.90;999.90;;;;;;;10.76;76.41;101198.78;15784495;28;20032;-65
2022/01/02 04:12:21;;;;;;;1999.90;999.90;;;;;;;10.85;76.72;101185.69;15770917;28;20079;-64
2022/01/02 04:19:54;;;;;;;1999.90;999.90;;;;;;;10.77;76.83;101182.88;15768579;28;20437;-64
2022/01/02 04:27:29;;;;;;;1999.90;999.90;;;;;;;10.81;76.21;101181.88;15746576;28;20139;-65
2022/01/02 04:35:04;;;;;;;1999.90;999.90;;;;;;;10.81;76.51;101220.13;15765359;28;20089;-64
2022/01/02 04:42:38;;;;;;;1999.90;999.90;;;;;;;11.05;75.84;101217.78;15786475;28;20505;-64
2022/01/02 04:50:11;;;;;;;1999.90;999.90;;;;;;;11.23;75.04;101213.84;15758366;28;20392;-63
2022/01/02 04:57:45;;;;;;;1999.90;999.90;;;;;;;11.06;75.48;101208.25;15776361;28;20043;-64
2022/01/02 05:05:19;;;;;;;1999.90;999.90;;;;;;;10.98;75.30;101204.28;15743342;28;20140;-64
2022/01/02 05:12:53;;;;;;;1999.90;999.90;;;;;;;11.00;75.30;101195.56;15743817;28;20080;-64
2022/01/02 05:20:26;;;;;;;1999.90;999.90;;;;;;;10.90;75.95;101188.31;15752163;28;20124;-64
2022/01/02 05:28:00;;;;;;;1999.90;999.90;;;;;;;10.92;76.13;101149.72;15725330;28;20048;-64
2022/01/02 05:35:32;;;;;;;1999.90;999.90;;;;;;;10.94;75.66;101139.06;15734289;28;20032;-64
2022/01/02 05:43:08;;;;;;;1999.90;999.90;;;;;;;10.72;76.77;101130.78;15744136;28;20055;-63
2022/01/02 05:50:41;;;;;;;1999.90;999.90;;;;;;;10.53;77.15;101105.97;15748551;28;20419;-64
2022/01/02 05:58:15;;;;;;;1999.90;999.90;;;;;;;10.56;77.49;101099.72;15766860;28;20036;-64
2022/01/02 06:05:48;;;;;;;1999.90;999.90;;;;;;;10.60;77.81;101108.25;15750388;28;20068;-64
2022/01/02 06:13:23;;;;;;;1999.90;999.90;;;;;;;10.54;78.33;101093.66;15753746;28;20055;-64
2022/01/02 06:21:05;;;;;;;1999.90;999.90;;;;;;;10.40;79.63;101099.31;15757569;28;20036;-65
2022/01/02 06:28:39;;;;;;;1999.90;999.90;;;;;;;10.55;78.92;101075.75;15728492;28;20136;-64
2022/01/02 06:36:13;;;;;;;1999.90;999.90;;;;;;;10.64;79.06;101057.06;15755729;28;20041;-64
2022/01/02 06:43:52;;;;;;;1999.90;999.90;;;;;;;10.85;78.84;101071.22;15750463;28;20052;-65
2022/01/02 06:51:25;;;;;;;1999.90;999.90;;;;;;;10.81;79.60;101066.59;15750822;28;20048;-65
2022/01/02 06:59:00;;;;;;;1999.90;999.90;;;;;;;10.94;79.39;101071.22;15774092;28;20098;-65
2022/01/02 07:06:32;;;;;;;1999.90;999.90;;;;;;;10.99;79.15;101051.53;15768626;28;20298;-64
2022/01/02 07:14:08;;;;;;;1999.90;999.90;;;;;;;11.21;78.74;101044.94;15776699;28;20143;-64
2022/01/02 07:21:40;;;;;;;1999.90;999.90;;;;;;;11.34;77.73;101043.94;15773374;28;20412;-65
2022/01/02 07:29:15;;;;;;;1999.90;999.90;;;;;;;10.99;79.43;101024.41;15798578;28;20045;-65
2022/01/02 07:36:47;;;;;;;1999.90;999.90;;;;;;;11.31;78.25;101052.16;15752600;28;20106;-66
2022/01/02 07:44:21;;;;;;;1999.90;999.90;;;;;;;11.45;77.89;101038.84;15773649;28;20105;-65
2022/01/02 07:51:54;;;;;;;1999.90;999.90;;;;;;;11.56;77.28;101037.31;15785045;28;20089;-64
2022/01/02 07:59:31;;;;;;;1999.90;999.90;;;;;;;11.47;77.36;101034.56;15791644;28;20048;-66
2022/01/02 08:07:04;;;;;;;1999.90;999.90;;;;;;;11.52;77.53;101041.94;15749939;28;20028;-64
2022/01/02 08:14:38;;;;;;;1999.90;999.90;;;;;;;11.44;78.04;101048.38;15774429;28;20072;-64
2022/01/02 08:22:11;;;;;;;1999.90;999.90;;;;;;;11.65;77.58;101043.72;15775986;28;20038;-63
2022/01/02 08:29:44;;;;;;;1999.90;999.90;;;;;;;11.91;76.65;101029.72;15760333;28;20045;-64
2022/01/02 08:37:17;;;;;;;1999.90;999.90;;;;;;;12.05;76.25;101029.50;15744566;28;20044;-64
2022/01/02 08:44:51;;;;;;;1999.90;999.90;;;;;;;12.10;76.10;101010.56;15748521;28;20044;-63
2022/01/02 08:52:25;;;;;;;1999.90;999.90;;;;;;;12.22;75.66;101015.44;15768403;28;20669;-63
2022/01/02 08:59:59;;;;;;;1999.90;999.90;;;;;;;12.08;76.99;101010.06;15744874;28;20036;-65
2022/01/02 09:07:31;;;;;;;1999.90;999.90;;;;;;;12.27;76.83;101001.25;15800641;28;20455;-63
2022/01/02 09:15:06;;;;;;;1999.90;999.90;;;;;;;12.30;77.24;100986.59;15800772;28;20044;-65
2022/01/02 09:22:39;;;;;;;1999.90;999.90;;;;;;;12.19;77.79;100976.09;15734921;28;20094;-65
2022/01/02 09:30:14;;;;;;;1999.90;999.90;;;;;;;12.21;78.53;100969.03;15738701;28;20091;-64
2022/01/02 09:37:46;;;;;;;1999.90;999.90;;;;;;;12.17;79.03;100962.47;15743326;28;20289;-63
2022/01/02 09:45:20;;;;;;;1999.90;999.90;;;;;;;12.05;79.72;100962.38;15757166;28;20099;-67
2022/01/02 09:52:54;;;;;;;1999.90;999.90;;;;;;;12.17;79.61;100970.84;15778211;28;20118;-65
2022/01/02 10:00:29;;;;;;;1999.90;999.90;;;;;;;12.33;79.79;100951.50;15753516;28;20412;-64
2022/01/02 10:08:20;;;;;;;1999.90;999.90;;;;;;;12.52;79.33;100923.06;15770994;28;20127;-65
2022/01/02 10:15:54;;;;;;;1999.90;999.90;;;;;;;12.64;78.56;100907.16;15743788;28;20098;-65
2022/01/02 10:23:27;;;;;;;1999.90;999.90;;;;;;;12.53;78.88;100886.34;15742182;28;20052;-65
2022/01/02 10:31:04;;;;;;;1999.90;999.90;;;;;;;12.79;78.50;100874.88;15783026;28;20401;-63
2022/01/02 10:38:37;;;;;;;1999.90;999.90;;;;;;;12.64;79.25;100858.75;15803463;28;20113;-65
2022/01/02 10:46:11;;;;;;;1999.90;999.90;;;;;;;12.71;79.14;100845.84;15802695;28;20044;-65
2022/01/02 10:53:54;;;;;;;1999.90;999.90;;;;;;;12.90;78.51;100803.28;15801895;28;20052;-66
2022/01/02 11:01:28;;;;;;;1999.90;999.90;;;;;;;12.76;79.36;100822.38;15791511;28;20485;-65
2022/01/02 11:09:01;;;;;;;1999.90;999.90;;;;;;;12.86;79.72;100787.53;15813221;28;20489;-66
2022/01/02 11:16:38;;;;;;;1999.90;999.90;;;;;;;13.04;79.60;100752.56;15779369;28;20036;-65
2022/01/02 11:24:18;;;;;;;1999.90;999.90;;;;;;;12.87;80.54;100744.34;15730719;28;20296;-65
2022/01/02 11:31:52;;;;;;;1999.90;999.90;;;;;;;13.15;79.73;100714.50;15714241;28;20052;-66
2022/01/02 11:39:25;;;;;;;1999.90;999.90;;;;;;;12.77;81.43;100728.00;15748062;28;20485;-65
2022/01/02 11:47:00;;;;;;;1999.90;999.90;;;;;;;12.71;82.27;100697.44;15746977;28;20045;-66
2022/01/02 11:54:51;;;;;;;1999.90;999.90;;;;;;;12.89;81.70;100691.59;15747198;28;20055;-65
2022/01/02 12:02:36;;;;;;;1999.90;999.90;;;;;;;12.58;82.92;100709.75;15729068;28;20044;-65
2022/01/02 12:10:24;;;;;;;1999.90;999.90;;;;;;;12.58;83.40;100687.38;15731271;28;20473;-66
2022/01/02 12:18:10;;;;;;;1999.90;999.90;;;;;;;12.51;83.26;100673.16;15759067;28;20051;-65
2022/01/02 12:25:45;;;;;;;1999.90;999.90;;;;;;;12.23;84.92;100647.78;15766636;28;20052;-65
2022/01/02 12:33:24;;;;;;;1999.90;999.90;;;;;;;12.27;85.11;100631.13;15745206;28;20053;-65
2022/01/02 12:40:59;;;;;;;1999.90;999.90;;;;;;;12.18;85.92;100628.41;15735773;28;20047;-64
2022/01/02 12:48:34;;;;;;;1999.90;999.90;;;;;;;12.25;85.08;100600.69;15791446;28;20032;-65
2022/01/02 12:56:07;;;;;;;1999.90;999.90;;;;;;;12.27;84.76;100567.59;15790933;28;20097;-65
2022/01/02 13:03:46;;;;;;;1999.90;999.90;;;;;;;12.27;84.79;100561.16;15807594;28;20044;-65
2022/01/02 13:11:19;;;;;;;1999.90;999.90;;;;;;;12.16;85.08;100527.25;15788452;28;20443;-65
2022/01/02 13:18:53;;;;;;;1999.90;999.90;;;;;;;12.35;83.99;100523.88;15765963;28;20481;-66
2022/01/02 13:26:25;;;;;;;1999.90;999.90;;;;;;;12.22;84.37;100527.84;15724598;28;20123;-65
2022/01/02 13:33:59;;;;;;;1999.90;999.90;;;;;;;12.27;84.15;100488.44;15724521;28;20098;-66
2022/01/02 13:41:35;;;;;;;1999.90;999.90;;;;;;;12.16;84.28;100484.47;15724496;28;20048;-65
2022/01/02 13:49:11;;;;;;;1999.90;999.90;;;;;;;12.26;83.66;100458.81;15723830;28;20401;-65
2022/01/02 13:56:57;;;;;;;1999.90;999.90;;;;;;;12.21;83.51;100417.13;15741032;28;20049;-65
2022/01/02 14:04:56;;;;;;;1999.90;999.90;;;;;;;12.11;83.26;100427.63;15723066;28;20052;-65
2022/01/02 14:12:33;;;;;;;1999.90;999.90;;;;;;;11.97;83.35;100427.13;15705569;28;20098;-65
2022/01/02 14:20:07;;;;;;;1999.90;999.90;;;;;;;12.08;82.61;100458.25;15772234;28;20060;-65
2022/01/02 14:27:39;;;;;;;1999.90;999.90;;;;;;;11.94;83.47;100471.75;15804546;28;20123;-65
2022/01/02 14:35:15;;;;;;;1999.90;999.90;;;;;;;12.26;82.71;100451.25;15774976;28;20050;-65
2022/01/02 14:42:48;;;;;;;1999.90;999.90;;;;;;;12.25;82.43;100401.25;15781121;28;20044;-65
2022/01/02 14:50:22;;;;;;;1999.90;999.90;;;;;;;12.22;82.81;100391.59;15798388;28;20048;-64
2022/01/02 14:57:55;;;;;;;1999.90;999.90;;;;;;;12.39;82.03;100388.50;15817836;28;20036;-66
2022/01/02 15:05:29;;;;;;;1999.90;999.90;;;;;;;12.39;82.08;100398.88;15797207;28;20516;-66
2022/01/02 15:13:02;;;;;;;1999.90;999.90;;;;;;;12.49;81.28;100384.41;15766638;28;20044;-63
2022/01/02 15:20:36;;;;;;;1999.90;999.90;;;;;;;12.46;80.23;100401.09;15764930;28;20048;-63
2022/01/02 15:28:09;;;;;;;1999.90;999.90;;;;;;;12.43;79.89;100413.81;15756803;28;20302;-62
2022/01/02 15:35:45;;;;;;;1999.90;999.90;;;;;;;12.46;79.51;100421.50;15782918;28;20708;-67
2022/01/02 15:43:17;;;;;;;1999.90;999.90;;;;;;;12.47;79.05;100428.72;15750824;28;20127;-66
2022/01/02 15:50:52;;;;;;;1999.90;999.90;;;;;;;12.48;78.58;100427.56;15761944;28;20047;-65
2022/01/02 15:58:28;;;;;;;1999.90;999.90;;;;;;;12.44;78.28;100429.44;15762925;28;20059;-63
2022/01/02 16:06:02;;;;;;;1999.90;999.90;;;;;;;12.46;78.09;100424.31;15743213;28;20044;-63
2022/01/02 16:13:35;;;;;;;1999.90;999.90;;;;;;;12.54;77.89;100433.75;15776993;28;20074;-64
2022/01/02 16:21:09;;;;;;;1999.90;999.90;;;;;;;12.87;76.56;100436.31;15724050;28;20048;-64
2022/01/02 16:28:41;;;;;;;1999.90;999.90;;;;;;;12.76;76.24;100424.00;15760697;28;20044;-63
2022/01/02 16:36:15;;;;;;;1999.90;999.90;;;;;;;12.83;75.66;100438.22;15777894;28;20417;-64
2022/01/02 16:43:48;;;;;;;1999.90;999.90;;;;;;;12.94;75.00;100414.94;15724563;28;20094;-64
2022/01/02 16:51:22;;;;;;;1999.90;999.90;;;;;;;13.02;74.47;100413.16;15748785;28;20051;-65
2022/01/02 16:58:56;;;;;;;1999.90;999.90;;;;;;;12.98;73.73;100415.03;15741355;28;20051;-63
2022/01/02 17:06:30;;;;;;;;;;;;;;;13.07;73.65;100424.09;15782376;28;20032;-66
2022/01/02 17:14:03;;;;;;;1999.90;999.90;;;;;;;13.07;73.56;100412.09;15774571;28;19924;-61
2022/01/02 17:21:37;;;;;;;1999.90;999.90;;;;;;;13.05;72.90;100403.22;15716782;28;20535;-61
2022/01/02 17:29:09;;;;;;;1999.90;999.90;;;;;;;13.12;72.49;100395.81;15787253;28;20047;-63
2022/01/02 17:36:43;;;;;;;1999.90;999.90;;;;;;;13.10;72.56;100403.78;15774281;28;20080;-62
2022/01/02 17:44:16;;;;;;;1999.90;999.90;;;;;;;13.44;71.62;100401.50;15770612;28;20093;-65
2022/01/02 17:51:50;;;;;;;1999.90;999.90;;;;;;;13.08;71.77;100399.72;15760228;28;20469;-67
2022/01/02 17:59:24;;;;;;;1999.90;999.90;;;;;;;13.10;71.37;100388.97;15743685;28;20041;-64
2022/01/02 18:06:58;;;;;;;1999.90;999.90;;;;;;;12.98;71.79;100390.66;15743622;28;20054;-65
2022/01/02 18:14:31;;;;;;;1999.90;999.90;;;;;;;13.02;71.23;100396.34;15778249;28;20052;-70
2022/01/02 18:22:05;;;;;;;1999.90;999.90;;;;;;;12.99;71.21;100405.47;15764101;28;20036;-69
2022/01/02 18:29:39;;;;;;;1999.90;999.90;;;;;;;12.87;71.15;100397.13;15771158;28;20425;-63
2022/01/02 18:37:14;;;;;;;1999.90;999.90;;;;;;;13.05;70.47;100401.25;15733511;28;20044;-64
2022/01/02 18:44:46;;;;;;;1999.90;999.90;;;;;;;13.05;70.33;100401.25;15793749;28;20135;-63
2022/01/02 18:52:21;;;;;;;1999.90;999.90;;;;;;;13.19;69.67;100401.66;15814567;28;20492;-66
2022/01/02 18:59:54;;;;;;;1999.90;999.90;;;;;;;12.95;69.93;100387.75;15779720;28;20037;-64
2022/01/02 19:07:34;;;;;;;1999.90;999.90;;;;;;;12.98;69.62;100379.44;15801801;28;20042;-64
2022/01/02 19:15:08;;;;;;;1999.90;999.90;;;;;;;12.89;69.53;100383.56;15748801;28;20056;-63
2022/01/02 19:22:43;;;;;;;1999.90;999.90;;;;;;;13.11;69.30;100385.78;15725582;28;20389;-66
2022/01/02 19:30:16;;;;;;;1999.90;999.90;;;;;;;13.14;68.89;100378.69;15802427;28;20052;-64
2022/01/02 19:37:50;;;;;;;1999.90;999.90;;;;;;;13.12;68.79;100387.41;15753306;28;20036;-67
2022/01/02 19:45:24;;;;;;;1999.90;999.90;;;;;;;13.23;68.46;100399.78;15773355;28;20109;-65
2022/01/02 19:52:58;;;;;;;1999.90;999.90;;;;;;;13.47;67.71;100414.81;15772102;28;20509;-66
2022/01/02 20:00:31;;;;;;;1999.90;999.90;;;;;;;13.53;67.70;100428.19;15791290;28;20045;-64
2022/01/02 20:08:05;;;;;;;1999.90;999.90;;;;;;;13.46;67.55;100432.81;15748375;28;20624;-70
2022/01/02 20:15:38;;;;;;;1999.90;999.90;;;;;;;13.40;67.76;100429.47;15792119;28;20144;-64
2022/01/02 20:23:13;;;;;;;1999.90;999.90;;;;;;;13.24;67.97;100431.44;15751072;28;20048;-67
2022/01/02 20:30:47;;;;;;;1999.90;999.90;;;;;;;13.17;67.80;100434.81;15781730;28;20079;-66
2022/01/02 20:38:21;;;;;;;1999.90;999.90;;;;;;;13.10;68.03;100430.97;15759197;28;20047;-68
2022/01/02 20:45:54;;;;;;;1999.90;999.90;;;;;;;13.22;67.06;100426.16;15766434;28;20464;-67
2022/01/02 20:53:29;;;;;;;1999.90;999.90;;;;;;;13.38;66.70;100436.59;15735442;28;20143;-61
2022/01/02 21:01:04;;;;;;;1999.90;999.90;;;;;;;13.39;66.69;100429.81;15738569;28;20039;-64
2022/01/02 21:08:39;;;;;;;1999.90;999.90;;;;;;;13.22;67.52;100428.97;15772847;28;20451;-63
2022/01/02 21:16:15;;;;;;;1999.90;999.90;;;;;;;13.17;67.54;100431.19;15758760;28;20590;-62
2022/01/02 21:23:54;;;;;;;1999.90;999.90;;;;;;;12.86;68.48;100429.09;15744317;28;20043;-64
2022/01/02 21:31:33;;;;;;;1999.90;999.90;;;;;;;12.97;68.30;100422.63;15767536;28;20044;-63
2022/01/02 21:39:08;;;;;;;1999.90;999.90;;;;;;;12.92;68.39;100422.06;15744207;28;20040;-62
2022/01/02 21:46:41;;;;;;;1999.90;999.90;;;;;;;12.60;69.48;100421.09;15742498;28;20044;-62
2022/01/02 21:54:16;;;;;;;1999.90;999.90;;;;;;;12.90;68.67;100413.19;15756398;28;20044;-63
2022/01/02 22:01:49;;;;;;;1999.90;999.90;;;;;;;12.85;68.75;100414.28;15749648;28;20044;-65
2022/01/02 22:09:24;;;;;;;1999.90;999.90;;;;;;;12.81;68.83;100413.34;15795183;28;20501;-64
2022/01/02 22:16:58;;;;;;;1999.90;999.90;;;;;;;12.81;68.67;100404.94;15789408;28;20512;-63
2022/01/02 22:24:34;;;;;;;1999.90;999.90;;;;;;;12.50;69.79;100396.41;15752537;28;20040;-62
2022/01/02 22:32:09;;;;;;;1999.90;999.90;;;;;;;12.52;69.33;100386.50;15742727;28;20032;-63
2022/01/02 22:39:44;;;;;;;1999.90;999.90;;;;;;;12.42;70.03;100384.22;15781840;28;20032;-63
2022/01/02 22:47:18;;;;;;;1999.90;999.90;;;;;;;12.25;70.42;100388.09;15765143;28;20095;-62
2022/01/02 22:54:55;;;;;;;1999.90;999.90;;;;;;;12.29;70.08;100365.81;15754733;28;20597;-63
2022/01/02 23:02:28;;;;;;;1999.90;999.90;;;;;;;12.19;70.49;100355.91;15754898;28;20059;-64
2022/01/02 23:10:04;;;;;;;1999.90;999.90;;;;;;;12.31;70.09;100341.09;15782481;28;20040;-63
2022/01/02 23:17:37;;;;;;;1999.90;999.90;;;;;;;12.07;70.48;100331.59;15753927;28;20482;-64
2022/01/02 23:25:12;;;;;;;1999.90;999.90;;;;;;;12.05;70.92;100322.72;15782286;28;20497;-65
2022/01/02 23:32:45;;;;;;;1999.90;999.90;;;;;;;12.12;70.63;100317.38;15768114;28;20098;-65
2022/01/02 23:40:19;;;;;;;1999.90;999.90;;;;;;;12.11;70.62;100307.34;15743076;28;20102;-64
2022/01/02 23:47:53;;;;;;;1999.90;999.90;;;;;;;12.21;70.40;100289.25;15760828;28;20171;-63
2022/01/02 23:55:28;;;;;;;1999.90;999.90;;;;;;;12.36;70.11;100287.69;15787816;28;20078;-63
